Main page
METAR-TAF:

METAR-TAF

Airports :

Venice Marco Polo Airport

Venice, Italy

latitude: 45-30N, longitude: 012-20E, elevation: 2 m

Current weather observation

The report was made 42 minutes ago, at 20:50 UTC
Wind 7 kt from the Southwest
Temperature 14°C
Humidity 77%
Pressure 1016 hPa
Visibility 10 km or more
no clouds below 1500 m and no cumulonimbus

METAR: LIPZ 232050Z 22007KT CAVOK 14/10 Q1016 NOSIG

Time: 23:32 (21:32 UTC)

Forecast

The report was made 4 hours and 32 minutes ago, at 17:00 UTC
Forecast valid from 23 at 18 UTC to 24 at 24 UTC
Wind 9 kt from the Southwest
Visibility 10 km or more
no clouds below 1500 m and no cumulonimbus

TAF: LIPZ 231700Z 2318/2424 22009KT CAVOK

Weather observations and forecasts of more than 4000 airports (METAR and TAF reports).

The available stations are represented by yellow and red dots on the map.

Hover mouse over dot to see the name of the station.

Then click to see weather observations and forecasts.

To change the map : click on the green buttons with a black cross to zoom in, on the green button with a dash to zoom out, or on the green arrows for adjacent maps.


METAR-TAF: